This is the latest recevied weather packets stored in our database for station/object W0DP. If no packets are shown the sender has not sent any weather packets the latest 10 day(s).
| Time | Temp. | Humidity | Pressure | Rain* | Wind** | Luminosity | Snow |
|---|---|---|---|---|---|---|---|
| 1777558816 | 8.89° C | 61% | 1019.1 hPa | 0 mm | - | - | - |
| 1777557016 | 8.89° C | 66% | 1019 hPa | 0 mm | - | - | - |
| 1777554615 | 8.33° C | 76% | 1019.2 hPa | 0 mm | - | - | - |
| 1777552235 | 7.78° C | 85% | 1018.5 hPa | 0 mm | - | - | - |
| 1777540817 | 6.67° C | 87% | 1019.3 hPa | 0 mm | - | - | - |
| 1777539037 | 6.11° C | 86% | 1018.9 hPa | 0 mm | - | - | - |
| 1777538417 | 5.56° C | 86% | 1018.7 hPa | 0 mm | - | - | - |
| 1777536017 | 6.11° C | 84% | 1018.7 hPa | 0 mm | - | - | - |
| 1777531817 | 5.56° C | 84% | 1018.9 hPa | 0 mm | - | - | - |
| 1777528816 | 6.11° C | 76% | 1019.2 hPa | 0 mm | - | - | - |
| 1777524616 | 7.22° C | 76% | 1019.4 hPa | 0 mm | - | - | - |
| 1777522816 | 7.22° C | 78% | 1019.7 hPa | 0 mm | - | - | - |
| 1777520416 | 7.78° C | 77% | 1019.8 hPa | 0 mm | - | - | - |
| 1777519236 | 8.33° C | 74% | 1019.8 hPa | 0 mm | - | - | - |
| 1777517416 | 8.89° C | 71% | 1019.8 hPa | 0 mm | - | - | - |
| 1777513216 | 11.11° C | 56% | 1019.3 hPa | 0 mm | - | - | - |
| 1777509036 | 13.89° C | 43% | 1019 hPa | 0 mm | - | - | - |
| 1777508416 | 14.44° C | 39% | 1019.1 hPa | 0 mm | - | - | - |
| 1777507215 | 15° C | 39% | 1019.2 hPa | 0 mm | - | - | - |
| 1777505416 | 16.11° C | 37% | 1019.5 hPa | 0 mm | - | - | - |
| 1777497017 | 16.11° C | 39% | 1019.7 hPa | 0 mm | - | - | - |
| 1777493437 | 15.56° C | 46% | 1020.2 hPa | 0 mm | - | - | - |
| 1777492817 | 15° C | 46% | 1020.3 hPa | 0 mm | - | - | - |
| 1777492217 | 15° C | 48% | 1020.5 hPa | 0 mm | - | - | - |
| 1777489817 | 15° C | 54% | 1020.7 hPa | 0 mm | - | - | - |
* Rain latest hour (hover to see other rain measurements)
** Current wind speed in m/s (hover to see current wind gust speed)